createdAt,value
2018-08-19T00:01:00.063Z,18.40
2018-08-19T00:03:28.095Z,18.40
2018-08-19T00:05:56.142Z,18.50
2018-08-19T00:08:24.183Z,18.50
2018-08-19T00:11:05.146Z,18.50
2018-08-19T00:13:33.728Z,18.50
2018-08-19T00:16:01.877Z,18.60
2018-08-19T00:18:29.940Z,18.60
2018-08-19T00:20:58.227Z,18.50
2018-08-19T00:23:29.272Z,18.50
2018-08-19T00:25:57.324Z,18.60
2018-08-19T00:28:25.409Z,18.60
2018-08-19T00:30:53.636Z,18.50
2018-08-19T00:33:21.745Z,18.40
2018-08-19T00:35:49.988Z,18.40
2018-08-19T00:38:18.068Z,18.50
2018-08-19T00:40:46.115Z,18.60
2018-08-19T00:43:14.365Z,18.50
2018-08-19T00:45:42.424Z,18.50
2018-08-19T00:48:11.968Z,18.60
2018-08-19T00:50:40.581Z,18.60
2018-08-19T00:53:09.916Z,18.60
2018-08-19T00:55:43.447Z,18.50
2018-08-19T00:58:15.200Z,18.50
2018-08-19T01:00:43.706Z,18.50
2018-08-19T01:03:12.136Z,18.60
2018-08-19T01:05:40.227Z,18.60
2018-08-19T01:08:09.358Z,18.60
2018-08-19T01:10:37.513Z,18.60
2018-08-19T01:13:05.584Z,18.60
2018-08-19T01:15:33.692Z,18.60
2018-08-19T01:18:01.780Z,18.50
2018-08-19T01:20:29.810Z,18.50
2018-08-19T01:22:57.868Z,18.50
2018-08-19T01:25:25.997Z,18.50
2018-08-19T01:27:54.035Z,18.50
2018-08-19T01:30:25.846Z,18.40
2018-08-19T01:32:54.178Z,18.40
2018-08-19T01:35:31.576Z,18.40
2018-08-19T01:37:59.816Z,18.40
2018-08-19T01:40:27.903Z,18.40
2018-08-19T01:42:55.958Z,18.30
2018-08-19T01:45:24.168Z,18.20
2018-08-19T01:47:52.687Z,18.20
2018-08-19T01:50:20.974Z,18.20
2018-08-19T01:52:49.246Z,18.20
2018-08-19T01:55:18.146Z,18.20
2018-08-19T01:57:48.324Z,18.10
2018-08-19T02:00:17.101Z,18.10
2018-08-19T02:02:56.546Z,18.10
2018-08-19T02:05:24.976Z,18.20
2018-08-19T02:07:55.372Z,18.20
2018-08-19T02:10:24.089Z,18.30
2018-08-19T02:12:53.514Z,18.30
2018-08-19T02:15:22.957Z,18.30
2018-08-19T02:17:59.045Z,18.30
2018-08-19T02:20:40.158Z,18.30
2018-08-19T02:23:11.725Z,18.20
2018-08-19T02:25:43.927Z,18.30
2018-08-19T02:28:12.545Z,18.30
2018-08-19T02:30:50.244Z,18.30
2018-08-19T02:33:18.308Z,18.30
2018-08-19T02:35:51.347Z,18.20
2018-08-19T02:38:19.652Z,18.30
2018-08-19T02:40:51.270Z,18.30
2018-08-19T02:43:19.985Z,18.30
2018-08-19T02:45:48.237Z,18.30
2018-08-19T02:48:16.268Z,18.30
2018-08-19T02:50:44.332Z,18.20
2018-08-19T02:53:12.392Z,18.20
2018-08-19T02:55:40.457Z,18.20
2018-08-19T02:58:27.007Z,18.20
2018-08-19T03:00:55.118Z,18.10
2018-08-19T03:03:23.168Z,18.10
2018-08-19T03:06:00.981Z,18.10
2018-08-19T03:08:29.695Z,18.00
2018-08-19T03:10:58.207Z,18.00
2018-08-19T03:13:26.484Z,17.90
2018-08-19T03:15:56.066Z,17.90
2018-08-19T03:18:24.485Z,17.80
2018-08-19T03:20:52.885Z,17.80
2018-08-19T03:23:21.576Z,17.80
2018-08-19T03:25:49.936Z,17.70
2018-08-19T03:28:18.352Z,17.70
2018-08-19T03:30:52.445Z,17.60
2018-08-19T03:33:20.532Z,17.70
2018-08-19T03:35:49.226Z,17.70
2018-08-19T03:38:17.690Z,17.70
2018-08-19T03:40:46.026Z,17.60
2018-08-19T03:43:14.381Z,17.50
2018-08-19T03:45:42.836Z,17.50
2018-08-19T03:48:10.865Z,17.50
2018-08-19T03:50:38.916Z,17.40
2018-08-19T03:53:07.091Z,17.40
2018-08-19T03:55:37.668Z,17.40
2018-08-19T03:58:07.036Z,17.40
2018-08-19T04:00:40.850Z,17.40
2018-08-19T04:03:16.661Z,17.30
2018-08-19T04:05:49.239Z,17.30
2018-08-19T04:08:17.381Z,17.30
2018-08-19T04:10:46.410Z,17.30
2018-08-19T04:13:27.284Z,17.20
2018-08-19T04:15:57.675Z,17.10
2018-08-19T04:18:35.364Z,17.10
2018-08-19T04:21:04.973Z,17.10
2018-08-19T04:23:34.101Z,17.10
2018-08-19T04:26:02.930Z,17.10
2018-08-19T04:28:34.961Z,17.10
2018-08-19T04:31:04.325Z,17.10
2018-08-19T04:34:35.896Z,17.20
2018-08-19T04:37:05.127Z,17.20
2018-08-19T04:39:33.222Z,17.30
2018-08-19T04:42:01.337Z,17.30
2018-08-19T04:44:29.555Z,17.30
2018-08-19T04:46:57.665Z,17.40
2018-08-19T04:49:25.775Z,17.30
2018-08-19T04:51:53.871Z,17.40
2018-08-19T04:54:21.941Z,17.40
2018-08-19T04:56:50.068Z,17.50
2018-08-19T04:59:18.198Z,17.50
2018-08-19T05:01:46.288Z,17.50
2018-08-19T05:04:14.345Z,17.60
2018-08-19T05:06:42.466Z,17.70
2018-08-19T05:09:10.670Z,17.80
2018-08-19T05:11:38.825Z,18.00
2018-08-19T05:14:06.965Z,18.10
2018-08-19T05:16:35.143Z,18.30
2018-08-19T05:19:04.953Z,18.30
2018-08-19T05:21:33.043Z,18.30
2018-08-19T05:24:01.430Z,18.30
2018-08-19T05:26:29.529Z,18.30
2018-08-19T05:29:09.304Z,18.30
2018-08-19T05:31:46.725Z,18.30
2018-08-19T05:34:21.201Z,18.50
2018-08-19T05:36:49.840Z,18.60
2018-08-19T05:39:18.367Z,18.60
2018-08-19T05:42:00.647Z,18.70
2018-08-19T05:44:31.624Z,18.70
2018-08-19T05:47:06.939Z,18.70
2018-08-19T05:49:36.614Z,18.80
2018-08-19T05:52:10.919Z,18.80
2018-08-19T05:54:44.564Z,18.90
2018-08-19T05:57:12.887Z,19.00
2018-08-19T05:59:41.004Z,19.10
2018-08-19T06:02:09.088Z,19.10
2018-08-19T06:04:37.218Z,19.10
2018-08-19T06:07:08.136Z,19.30
2018-08-19T06:09:36.444Z,19.50
2018-08-19T06:12:05.205Z,19.70
2018-08-19T06:14:33.642Z,19.90
2018-08-19T06:17:03.623Z,20.00
2018-08-19T06:19:32.784Z,20.10
2018-08-19T06:22:01.043Z,20.10
2018-08-19T06:24:29.994Z,20.10
2018-08-19T06:26:58.193Z,20.30
2018-08-19T06:29:44.813Z,20.70
2018-08-19T06:32:20.621Z,20.60
2018-08-19T06:34:51.259Z,20.80
2018-08-19T06:37:20.813Z,21.10
2018-08-19T06:39:49.998Z,20.80
2018-08-19T06:42:18.243Z,20.60
2018-08-19T06:44:46.587Z,20.50
2018-08-19T06:47:14.774Z,20.50
2018-08-19T06:49:48.432Z,20.50
2018-08-19T06:52:17.064Z,20.60
2018-08-19T06:54:45.448Z,20.70
2018-08-19T06:57:13.699Z,20.90
2018-08-19T06:59:41.894Z,21.00
2018-08-19T07:02:13.660Z,21.00
2018-08-19T07:04:43.791Z,21.00
2018-08-19T07:07:13.994Z,21.40
2018-08-19T07:09:42.288Z,21.60
2018-08-19T07:12:14.477Z,21.60
2018-08-19T07:14:45.708Z,21.80
2018-08-19T07:17:17.064Z,22.20
2018-08-19T07:19:45.216Z,22.40
2018-08-19T07:22:16.743Z,22.20
2018-08-19T07:24:45.047Z,22.30
2018-08-19T07:27:13.274Z,22.30
2018-08-19T07:29:41.407Z,22.40
2018-08-19T07:32:10.528Z,22.50
2018-08-19T07:41:39.145Z,22.80
2018-08-19T07:44:07.307Z,22.70
2018-08-19T07:46:35.499Z,22.80
2018-08-19T07:49:03.620Z,23.30
2018-08-19T07:51:31.826Z,23.10
2018-08-19T07:54:00.090Z,23.40
2018-08-19T07:56:28.272Z,23.60
2018-08-19T07:59:02.016Z,23.70
2018-08-19T08:01:30.260Z,23.80
2018-08-19T08:09:54.541Z,23.90
2018-08-19T08:12:22.759Z,24.30
2018-08-19T08:14:52.893Z,24.00
2018-08-19T08:17:21.986Z,23.90
2018-08-19T08:19:55.493Z,24.40
2018-08-19T08:22:26.520Z,24.90
2018-08-19T08:24:54.796Z,25.20
2018-08-19T08:27:22.975Z,25.60
2018-08-19T08:29:51.129Z,25.50
2018-08-19T08:32:19.237Z,25.50
2018-08-19T08:34:47.362Z,25.70
2018-08-19T08:37:15.506Z,25.70
2018-08-19T08:39:43.646Z,26.00
2018-08-19T08:42:11.732Z,26.40
2018-08-19T08:44:39.839Z,26.90
2018-08-19T08:47:12.468Z,27.00
2018-08-19T08:49:46.612Z,27.10
2018-08-19T08:52:21.908Z,27.20
2018-08-19T08:54:52.299Z,27.40
2018-08-19T08:57:21.269Z,27.30
2018-08-19T08:59:50.147Z,28.00
2018-08-19T09:02:18.356Z,29.80
2018-08-19T09:04:46.589Z,30.60
2018-08-19T09:07:14.967Z,31.40
2018-08-19T09:09:44.607Z,31.40
2018-08-19T09:12:17.005Z,30.90
2018-08-19T09:14:48.798Z,30.80
2018-08-19T09:17:17.225Z,31.60
2018-08-19T09:20:32.547Z,32.80
2018-08-19T09:23:01.915Z,33.20
2018-08-19T09:25:34.307Z,32.60
2018-08-19T09:28:05.627Z,32.20
2018-08-19T09:30:52.877Z,32.60
2018-08-19T09:33:21.127Z,32.70
2018-08-19T09:35:57.444Z,33.30
2018-08-19T09:38:29.041Z,33.40
2018-08-19T09:40:57.175Z,32.70
2018-08-19T09:43:31.528Z,32.50
2018-08-19T09:46:04.037Z,33.30
2018-08-19T09:48:32.252Z,33.10
2018-08-19T09:51:06.048Z,32.90
2018-08-19T09:53:35.263Z,33.60
2018-08-19T09:56:08.553Z,34.60
2018-08-19T09:58:37.004Z,34.80
2018-08-19T10:01:10.878Z,34.90
2018-08-19T10:03:39.101Z,33.90
2018-08-19T10:06:07.585Z,34.70
2018-08-19T10:08:35.809Z,35.80
2018-08-19T10:11:03.924Z,35.00
2018-08-19T10:13:32.081Z,35.00
2018-08-19T10:16:00.296Z,34.90
2018-08-19T10:18:28.443Z,34.80
2018-08-19T10:20:58.907Z,35.10
2018-08-19T10:23:27.164Z,35.00
2018-08-19T10:25:56.658Z,35.00
2018-08-19T10:28:24.834Z,34.70
2018-08-19T10:30:58.229Z,35.60
2018-08-19T10:33:26.364Z,36.30
2018-08-19T10:35:57.903Z,36.40
2018-08-19T10:38:26.146Z,36.20
2018-08-19T10:41:03.690Z,34.70
2018-08-19T10:43:31.981Z,35.40
2018-08-19T10:46:00.104Z,36.20
2018-08-19T10:48:28.220Z,36.90
2018-08-19T10:50:56.462Z,35.50
2018-08-19T10:53:27.248Z,35.00
2018-08-19T10:56:01.411Z,34.80
2018-08-19T10:58:29.705Z,35.80
2018-08-19T11:00:57.865Z,36.60
2018-08-19T11:03:26.144Z,35.20
2018-08-19T11:05:55.605Z,35.80
2018-08-19T11:08:23.680Z,36.70
2018-08-19T11:10:51.757Z,37.00
2018-08-19T11:13:23.938Z,36.80
2018-08-19T11:15:54.079Z,37.10
2018-08-19T11:18:40.879Z,37.20
2018-08-19T11:21:13.878Z,37.20
2018-08-19T11:23:43.281Z,37.30
2018-08-19T11:26:11.704Z,35.60
2018-08-19T11:28:44.067Z,36.50
2018-08-19T11:31:19.375Z,36.30
2018-08-19T11:33:48.031Z,36.30
2018-08-19T11:36:16.377Z,35.40
2018-08-19T11:38:48.353Z,35.70
2018-08-19T11:41:16.899Z,35.30
2018-08-19T11:43:46.267Z,36.00
2018-08-19T11:46:14.411Z,36.20
2018-08-19T11:51:48.888Z,36.90
2018-08-19T11:54:18.296Z,37.40
2018-08-19T11:57:01.547Z,37.60
2018-08-19T11:59:35.319Z,36.20
2018-08-19T12:02:09.256Z,36.40
2018-08-19T12:04:37.335Z,35.20
2018-08-19T12:07:05.496Z,36.30
2018-08-19T12:09:38.374Z,37.30
2018-08-19T12:12:06.450Z,36.70
2018-08-19T12:14:36.421Z,35.60
2018-08-19T12:17:13.232Z,35.90
2018-08-19T12:19:42.780Z,36.10
2018-08-19T12:22:11.264Z,36.60
2018-08-19T12:24:42.294Z,36.90
2018-08-19T12:27:12.900Z,37.00
2018-08-19T12:29:42.058Z,37.20
2018-08-19T12:32:28.554Z,37.90
2018-08-19T12:34:59.018Z,37.80
2018-08-19T12:37:28.505Z,36.80
2018-08-19T12:39:57.205Z,36.90
2018-08-19T12:42:25.960Z,36.70
2018-08-19T12:45:02.782Z,36.80
2018-08-19T12:47:30.920Z,37.40
2018-08-19T12:50:01.534Z,38.10
2018-08-19T12:52:30.906Z,38.30
2018-08-19T12:55:06.932Z,37.10
2018-08-19T12:57:36.043Z,36.30
2018-08-19T13:00:18.921Z,37.00
2018-08-19T13:02:48.658Z,37.40
2018-08-19T13:05:17.778Z,37.70
2018-08-19T13:09:10.679Z,36.60
2018-08-19T13:11:38.763Z,36.10
2018-08-19T13:14:06.865Z,36.50
2018-08-19T13:16:34.991Z,36.00
2018-08-19T13:19:03.155Z,35.70
2018-08-19T13:21:31.555Z,36.00
2018-08-19T13:23:59.888Z,36.70
2018-08-19T13:26:28.198Z,34.90
2018-08-19T13:28:56.384Z,33.30
2018-08-19T13:31:30.201Z,33.50
2018-08-19T13:33:58.362Z,33.40
2018-08-19T13:36:26.449Z,33.30
2018-08-19T13:38:54.548Z,33.30
2018-08-19T13:41:22.660Z,33.30
2018-08-19T13:43:50.836Z,33.10
2018-08-19T13:46:18.933Z,32.90
2018-08-19T13:48:47.029Z,32.70
2018-08-19T13:51:15.124Z,32.40
2018-08-19T13:53:43.185Z,32.30
2018-08-19T13:56:11.295Z,32.40
2018-08-19T13:58:39.342Z,32.60
2018-08-19T14:01:07.405Z,32.80
2018-08-19T14:03:35.471Z,32.80
2018-08-19T14:06:03.581Z,32.90
2018-08-19T14:08:31.668Z,33.30
2018-08-19T14:10:59.771Z,33.40
2018-08-19T14:13:27.927Z,33.40
2018-08-19T14:15:56.067Z,33.90
2018-08-19T14:18:25.104Z,34.20
2018-08-19T14:20:53.301Z,34.30
2018-08-19T14:23:21.668Z,34.30
2018-08-19T14:25:49.956Z,34.30
2018-08-19T14:28:18.217Z,34.50
2018-08-19T14:30:46.569Z,34.30
2018-08-19T14:33:14.961Z,34.30
2018-08-19T14:35:43.195Z,34.10
2018-08-19T14:38:11.459Z,33.90
2018-08-19T14:40:39.741Z,34.10
2018-08-19T14:43:08.101Z,34.30
2018-08-19T14:45:36.240Z,34.30
2018-08-19T14:48:04.906Z,34.30
2018-08-19T14:50:33.688Z,33.90
2018-08-19T14:53:01.930Z,34.30
2018-08-19T14:55:30.036Z,34.70
2018-08-19T14:57:59.441Z,34.70
2018-08-19T15:00:27.768Z,34.20
2018-08-19T15:02:56.295Z,33.80
2018-08-19T15:05:24.728Z,33.90
2018-08-19T15:07:53.157Z,34.00
2018-08-19T15:10:23.917Z,33.80
2018-08-19T15:12:52.708Z,34.20
2018-08-19T15:15:20.824Z,34.30
2018-08-19T15:17:56.255Z,33.90
2018-08-19T15:20:31.670Z,34.30
2018-08-19T15:23:11.010Z,34.10
2018-08-19T15:25:39.087Z,33.60
2018-08-19T15:28:07.302Z,33.10
2018-08-19T15:30:36.029Z,33.20
2018-08-19T15:33:04.325Z,32.90
2018-08-19T15:35:32.303Z,32.60
2018-08-19T15:38:00.448Z,32.20
2018-08-19T15:40:36.228Z,31.80
2018-08-19T15:43:04.413Z,31.70
2018-08-19T15:45:32.483Z,31.70
2018-08-19T15:48:00.583Z,31.60
2018-08-19T15:50:28.651Z,31.10
2018-08-19T15:52:57.533Z,30.90
2018-08-19T15:55:25.598Z,30.80
2018-08-19T15:57:53.680Z,30.90
2018-08-19T16:00:21.806Z,31.10
2018-08-19T16:02:49.936Z,31.10
2018-08-19T16:05:18.249Z,31.40
2018-08-19T16:07:47.036Z,31.50
2018-08-19T16:10:16.060Z,31.50
2018-08-19T16:12:48.497Z,31.20
2018-08-19T16:15:23.735Z,31.00
2018-08-19T16:17:53.477Z,30.70
2018-08-19T16:20:21.687Z,30.80
2018-08-19T16:22:49.936Z,31.00
2018-08-19T16:25:18.773Z,30.70
2018-08-19T16:27:46.963Z,30.70
2018-08-19T16:30:15.135Z,30.60
2018-08-19T16:32:43.505Z,30.60
2018-08-19T16:35:11.633Z,30.70
2018-08-19T16:37:39.810Z,30.80
2018-08-19T16:40:10.265Z,30.90
2018-08-19T16:42:38.747Z,30.80
2018-08-19T16:45:07.234Z,30.50
2018-08-19T16:47:35.752Z,30.30
2018-08-19T16:50:04.371Z,30.50
2018-08-19T16:52:32.394Z,30.40
2018-08-19T16:55:00.473Z,30.20
2018-08-19T16:57:28.591Z,30.40
2018-08-19T16:59:56.653Z,30.30
2018-08-19T17:02:25.044Z,30.40
2018-08-19T17:04:53.103Z,30.40
2018-08-19T17:07:21.209Z,30.10
2018-08-19T17:09:49.464Z,30.20
2018-08-19T17:12:17.455Z,30.20
2018-08-19T17:14:45.540Z,30.20
2018-08-19T17:17:13.704Z,30.20
2018-08-19T17:19:41.780Z,30.00
2018-08-19T17:22:10.034Z,29.90
2018-08-19T17:24:38.161Z,29.80
2018-08-19T17:27:11.662Z,29.60
2018-08-19T17:29:40.065Z,29.60
2018-08-19T17:32:08.169Z,29.50
2018-08-19T17:34:39.312Z,29.50
2018-08-19T17:37:08.666Z,29.30
2018-08-19T17:39:36.802Z,29.30
2018-08-19T17:42:05.153Z,29.20
2018-08-19T17:44:33.306Z,29.20
2018-08-19T17:47:01.364Z,29.10
2018-08-19T17:49:31.213Z,29.00
2018-08-19T17:52:00.169Z,28.90
2018-08-19T17:54:29.464Z,28.80
2018-08-19T17:56:58.750Z,28.70
2018-08-19T17:59:26.986Z,28.50
2018-08-19T18:01:54.941Z,28.40
2018-08-19T18:04:26.801Z,28.30
2018-08-19T18:06:54.899Z,28.20
2018-08-19T18:09:23.012Z,28.10
2018-08-19T18:12:03.225Z,28.10
2018-08-19T18:14:31.298Z,28.00
2018-08-19T18:16:59.372Z,27.90
2018-08-19T18:19:27.455Z,27.80
2018-08-19T18:21:55.572Z,27.70
2018-08-19T18:24:23.648Z,27.70
2018-08-19T18:26:51.707Z,27.60
2018-08-19T18:29:19.819Z,27.50
2018-08-19T18:31:49.639Z,27.40
2018-08-19T18:34:17.751Z,27.30
2018-08-19T18:36:45.796Z,27.10
2018-08-19T18:46:12.701Z,26.70
2018-08-19T18:48:40.863Z,26.40
2018-08-19T18:51:09.001Z,26.30
2018-08-19T18:53:37.712Z,26.20
2018-08-19T18:56:05.871Z,26.10
2018-08-19T18:58:34.042Z,26.20
2018-08-19T19:01:02.131Z,26.30
2018-08-19T19:03:30.377Z,26.20
2018-08-19T19:05:58.533Z,26.10
2018-08-19T19:08:26.611Z,26.10
2018-08-19T19:10:57.525Z,26.10
2018-08-19T19:13:26.536Z,26.10
2018-08-19T19:15:54.728Z,25.90
2018-08-19T19:18:22.877Z,25.80
2018-08-19T19:20:56.470Z,25.70
2018-08-19T19:23:29.889Z,25.60
2018-08-19T19:25:58.284Z,25.40
2018-08-19T19:28:26.339Z,25.30
2018-08-19T19:31:00.804Z,25.20
2018-08-19T19:33:28.932Z,25.20
2018-08-19T19:36:02.428Z,25.10
2018-08-19T19:38:30.745Z,24.90
2018-08-19T19:41:05.117Z,24.70
2018-08-19T19:43:33.197Z,24.60
2018-08-19T19:46:01.538Z,24.50
2018-08-19T19:48:29.704Z,24.50
2018-08-19T19:50:57.823Z,24.50
2018-08-19T19:53:26.238Z,24.60
2018-08-19T19:55:58.190Z,24.50
2018-08-19T19:58:26.358Z,24.30
2018-08-19T20:00:55.609Z,24.10
2018-08-19T20:03:24.392Z,24.10
2018-08-19T20:05:52.559Z,24.10
2018-08-19T20:08:23.781Z,24.10
2018-08-19T20:10:52.021Z,24.10
2018-08-19T20:13:20.393Z,24.10
2018-08-19T20:15:48.578Z,23.90
2018-08-19T20:18:16.926Z,23.70
2018-08-19T20:20:45.245Z,23.60
2018-08-19T20:23:19.070Z,23.60
2018-08-19T20:25:47.304Z,23.60
2018-08-19T20:28:15.604Z,23.40
2018-08-19T20:30:43.800Z,23.30
2018-08-19T20:33:18.605Z,23.10
2018-08-19T20:35:46.935Z,23.10
2018-08-19T20:38:15.053Z,23.00
2018-08-19T20:40:43.282Z,23.00
2018-08-19T20:43:17.648Z,23.10
2018-08-19T20:45:46.228Z,23.10
2018-08-19T20:48:16.800Z,23.00
2018-08-19T20:50:45.250Z,22.80
2018-08-19T20:53:13.525Z,22.90
2018-08-19T20:55:41.701Z,22.90
2018-08-19T20:58:10.109Z,22.80
2018-08-19T21:00:38.464Z,22.70
2018-08-19T21:03:07.032Z,22.60
2018-08-19T21:05:35.216Z,22.70
2018-08-19T21:08:13.505Z,22.60
2018-08-19T21:10:42.936Z,22.60
2018-08-19T21:13:12.536Z,22.60
2018-08-19T21:15:42.286Z,22.50
2018-08-19T21:18:11.065Z,22.40
2018-08-19T21:20:39.441Z,22.50
2018-08-19T21:23:07.824Z,22.50
2018-08-19T21:25:46.237Z,22.60
2018-08-19T21:28:14.693Z,22.60
2018-08-19T21:30:42.990Z,22.60
2018-08-19T21:33:11.230Z,22.50
2018-08-19T21:35:44.728Z,22.50
2018-08-19T21:38:12.814Z,22.60
2018-08-19T21:40:41.060Z,22.50
2018-08-19T21:43:09.691Z,22.50
2018-08-19T21:45:38.339Z,22.40
2018-08-19T21:48:10.597Z,22.30
2018-08-19T21:50:39.268Z,22.30
2018-08-19T21:53:09.643Z,22.30
2018-08-19T21:55:39.114Z,22.10
2018-08-19T21:58:07.432Z,22.00
2018-08-19T22:00:37.193Z,22.00
2018-08-19T22:03:13.480Z,22.10
2018-08-19T22:05:41.618Z,22.10
2018-08-19T22:08:09.864Z,22.00
2018-08-19T22:10:37.945Z,21.90
2018-08-19T22:13:05.991Z,21.80
2018-08-19T22:15:38.145Z,21.90
2018-08-19T22:18:07.684Z,21.90
2018-08-19T22:20:36.325Z,21.90
2018-08-19T22:23:04.544Z,21.80
2018-08-19T22:25:32.628Z,21.80
2018-08-19T22:28:00.879Z,21.70
2018-08-19T22:30:29.826Z,21.60
2018-08-19T22:32:58.381Z,21.60
2018-08-19T22:35:26.461Z,21.40
2018-08-19T22:37:54.544Z,21.20
2018-08-19T22:40:29.013Z,21.10
2018-08-19T22:42:57.086Z,21.00
2018-08-19T22:45:25.152Z,21.10
2018-08-19T22:47:54.244Z,21.10
2018-08-19T22:50:22.344Z,21.20
2018-08-19T22:52:50.481Z,21.20
2018-08-19T22:55:19.220Z,21.20
2018-08-19T22:57:47.309Z,21.30
2018-08-19T23:00:19.599Z,21.30
2018-08-19T23:02:47.717Z,21.20
2018-08-19T23:05:15.796Z,21.10
2018-08-19T23:07:43.912Z,21.10
2018-08-19T23:10:12.008Z,21.10
2018-08-19T23:12:40.745Z,21.00
2018-08-19T23:15:44.160Z,21.00
2018-08-19T23:18:12.265Z,21.00
2018-08-19T23:20:40.316Z,20.90
2018-08-19T23:23:08.369Z,20.80
2018-08-19T23:25:36.480Z,20.80
2018-08-19T23:28:04.593Z,20.90
2018-08-19T23:30:32.635Z,20.80
2018-08-19T23:33:00.751Z,20.60
2018-08-19T23:35:28.857Z,20.50
2018-08-19T23:37:56.978Z,20.50
2018-08-19T23:40:25.049Z,20.40
2018-08-19T23:42:53.197Z,20.40
2018-08-19T23:45:21.280Z,20.30
2018-08-19T23:47:49.381Z,20.30
2018-08-19T23:50:17.469Z,20.30
2018-08-19T23:52:45.652Z,20.30
2018-08-19T23:55:13.792Z,20.30
2018-08-19T23:57:41.861Z,20.30
